createdAt,value
2016-05-15T00:00:32.655Z,0
2016-05-15T00:01:32.877Z,0
2016-05-15T00:02:32.879Z,0
2016-05-15T00:03:32.774Z,0
2016-05-15T00:04:33.042Z,0
2016-05-15T00:05:32.810Z,0
2016-05-15T00:06:32.844Z,0
2016-05-15T00:07:33.049Z,0
2016-05-15T00:08:32.754Z,0
2016-05-15T00:09:33.101Z,0
2016-05-15T00:10:33.136Z,0
2016-05-15T00:11:33.154Z,0
2016-05-15T00:12:33.188Z,0
2016-05-15T00:13:33.065Z,0
2016-05-15T00:14:33.084Z,0
2016-05-15T00:15:33.274Z,0
2016-05-15T00:16:33.292Z,0
2016-05-15T00:17:33.514Z,0
2016-05-15T00:18:32.907Z,0
2016-05-15T00:19:33.394Z,0
2016-05-15T00:20:33.412Z,0
2016-05-15T00:21:33.290Z,0
2016-05-15T00:22:33.480Z,0
2016-05-15T00:23:33.515Z,0
2016-05-15T00:24:33.548Z,0
2016-05-15T00:25:33.551Z,0
2016-05-15T00:26:33.616Z,0
2016-05-15T00:27:33.650Z,0
2016-05-15T00:28:33.668Z,0
2016-05-15T00:29:33.530Z,0
2016-05-15T00:30:33.564Z,0
2016-05-15T00:31:33.755Z,0
2016-05-15T00:32:33.805Z,0
2016-05-15T00:33:33.901Z,0
2016-05-15T00:34:34.029Z,0
2016-05-15T00:35:33.859Z,0
2016-05-15T00:36:33.752Z,0
2016-05-15T00:37:33.927Z,0
2016-05-15T00:38:33.960Z,0
2016-05-15T00:39:33.979Z,0
2016-05-15T00:40:33.716Z,0
2016-05-15T00:41:34.047Z,0
2016-05-15T00:42:34.096Z,0
2016-05-15T00:43:34.115Z,0
2016-05-15T00:44:34.134Z,0
2016-05-15T00:45:34.167Z,0
2016-05-15T00:46:34.186Z,0
2016-05-15T00:47:34.235Z,0
2016-05-15T00:48:34.269Z,0
2016-05-15T00:49:34.132Z,0
2016-05-15T00:50:34.322Z,0
2016-05-15T00:51:34.356Z,0
2016-05-15T00:52:34.373Z,0
2016-05-15T00:53:34.392Z,0
2016-05-15T00:54:34.472Z,0
2016-05-15T00:55:34.147Z,0
2016-05-15T00:56:34.509Z,0
2016-05-15T00:57:34.528Z,0
2016-05-15T00:58:34.561Z,0
2016-05-15T00:59:34.424Z,0
2016-05-15T01:00:34.489Z,0
2016-05-15T01:01:34.491Z,0
2016-05-15T01:02:34.682Z,0
2016-05-15T01:03:52.935Z,0
2016-05-15T01:04:34.610Z,0
2016-05-15T01:05:34.768Z,0
2016-05-15T01:06:34.490Z,0
2016-05-15T01:07:34.680Z,0
2016-05-15T01:08:34.729Z,0
2016-05-15T01:09:34.904Z,0
2016-05-15T01:10:34.907Z,0
2016-05-15T01:11:34.957Z,0
2016-05-15T01:12:34.834Z,0
2016-05-15T01:13:34.946Z,0
2016-05-15T01:14:34.745Z,0
2016-05-15T01:15:35.076Z,0
2016-05-15T01:16:34.954Z,0
2016-05-15T01:17:35.144Z,0
2016-05-15T01:18:35.584Z,0
2016-05-15T01:19:35.821Z,0
2016-05-15T01:20:35.245Z,0
2016-05-15T01:21:35.249Z,0
2016-05-15T01:22:35.126Z,0
2016-05-15T01:23:35.020Z,0
2016-05-15T01:24:35.350Z,0
2016-05-15T01:25:35.384Z,0
2016-05-15T01:26:35.262Z,0
2016-05-15T01:27:35.280Z,0
2016-05-15T01:28:35.455Z,0
2016-05-15T01:29:35.489Z,0
2016-05-15T01:30:35.522Z,0
2016-05-15T01:31:35.385Z,0
2016-05-15T01:32:35.419Z,0
2016-05-15T01:33:35.547Z,0
2016-05-15T01:34:35.502Z,0
2016-05-15T01:35:35.661Z,0
2016-05-15T01:36:36.524Z,0
2016-05-15T01:37:35.713Z,0
2016-05-15T01:38:49.763Z,0
2016-05-15T01:39:35.641Z,0
2016-05-15T01:40:35.815Z,0
2016-05-15T01:41:35.834Z,0
2016-05-15T01:42:35.882Z,0
2016-05-15T01:43:35.589Z,0
2016-05-15T01:44:35.935Z,0
2016-05-15T01:45:35.969Z,0
2016-05-15T01:46:35.831Z,0
2016-05-15T01:47:36.225Z,0
2016-05-15T01:48:36.228Z,0
2016-05-15T01:49:36.262Z,0
2016-05-15T01:50:35.811Z,0
2016-05-15T01:51:36.157Z,0
2016-05-15T01:52:36.050Z,0
2016-05-15T01:53:36.195Z,0
2016-05-15T01:54:36.212Z,0
2016-05-15T01:55:36.278Z,0
2016-05-15T01:56:35.795Z,0
2016-05-15T01:57:36.330Z,0
2016-05-15T01:58:50.520Z,0
2016-05-15T01:59:36.600Z,0
2016-05-15T02:00:36.510Z,0
2016-05-15T02:01:36.138Z,0
2016-05-15T02:02:36.672Z,0
2016-05-15T02:04:36.521Z,0
2016-05-15T02:05:36.804Z,0
2016-05-15T02:06:36.822Z,0
2016-05-15T02:07:50.950Z,0
2016-05-15T02:08:37.281Z,0
2016-05-15T02:09:36.738Z,0
2016-05-15T02:10:36.552Z,0
2016-05-15T02:11:50.758Z,0
2016-05-15T02:12:51.182Z,0
2016-05-15T02:13:37.014Z,0
2016-05-15T02:14:36.688Z,0
2016-05-15T02:15:37.128Z,0
2016-05-15T02:16:38.616Z,0
2016-05-15T02:17:51.571Z,0
2016-05-15T02:18:37.526Z,0
2016-05-15T02:21:05.970Z,0
2016-05-15T02:22:07.238Z,0
2016-05-15T02:24:07.697Z,0
2016-05-15T02:25:06.106Z,0
2016-05-15T02:25:52.592Z,0
2016-05-15T02:26:53.783Z,0
2016-05-15T02:30:11.853Z,0
2016-05-15T02:31:53.936Z,0
2016-05-15T02:33:48.349Z,0
2016-05-15T02:35:02.241Z,0
2016-05-15T02:38:17.110Z,0
2016-05-15T02:39:03.455Z,0
2016-05-15T02:39:48.708Z,0
2016-05-15T02:41:02.211Z,0
2016-05-15T02:41:49.338Z,0
2016-05-15T02:42:48.529Z,0
2016-05-15T02:44:02.704Z,0
2016-05-15T02:44:48.832Z,0
2016-05-15T02:46:02.506Z,0
2016-05-15T02:47:02.399Z,0
2016-05-15T02:49:03.514Z,0
2016-05-15T02:50:16.610Z,0
2016-05-15T02:50:48.878Z,0
2016-05-15T02:53:02.587Z,0
2016-05-15T02:53:48.730Z,0
2016-05-15T02:54:48.280Z,0
2016-05-15T02:55:49.517Z,0
2016-05-15T02:56:48.739Z,0
2016-05-15T02:57:48.616Z,0
2016-05-15T02:59:02.995Z,0
2016-05-15T03:00:03.637Z,0
2016-05-15T03:00:48.905Z,0
2016-05-15T03:02:17.080Z,0
2016-05-15T03:02:48.473Z,0
2016-05-15T03:03:49.350Z,0
2016-05-15T03:04:52.838Z,0
2016-05-15T03:06:03.950Z,0
2016-05-15T03:07:17.141Z,0
2016-05-15T03:07:50.518Z,0
2016-05-15T03:08:49.583Z,0
2016-05-15T03:10:17.008Z,0
2016-05-15T03:11:03.135Z,0
2016-05-15T03:11:51.013Z,0
2016-05-15T03:13:03.391Z,0
2016-05-15T03:15:12.068Z,0
2016-05-15T03:15:57.977Z,0
2016-05-15T03:18:12.670Z,0
2016-05-15T03:18:59.141Z,0
2016-05-15T03:20:59.991Z,0
2016-05-15T03:21:58.759Z,0
2016-05-15T03:22:59.292Z,0
2016-05-15T03:24:26.515Z,0
2016-05-15T03:26:13.253Z,0
2016-05-15T03:27:00.538Z,0
2016-05-15T03:27:58.775Z,0
2016-05-15T03:29:54.717Z,0
2016-05-15T03:30:36.564Z,0
2016-05-15T03:31:22.048Z,0
2016-05-15T03:32:22.270Z,5
2016-05-15T03:33:08.319Z,5
2016-05-15T03:34:07.322Z,5
2016-05-15T03:35:07.528Z,5
2016-05-15T03:37:14.439Z,5
2016-05-15T03:38:08.677Z,5
2016-05-15T03:39:07.914Z,5
2016-05-15T03:40:22.322Z,5
2016-05-15T03:41:08.466Z,5
2016-05-15T03:42:22.922Z,5
2016-05-15T03:43:23.285Z,10
2016-05-15T03:44:22.396Z,10
2016-05-15T03:45:21.882Z,10
2016-05-15T03:46:08.293Z,10
2016-05-15T03:47:22.279Z,10
2016-05-15T03:48:22.312Z,10
2016-05-15T03:49:07.691Z,10
2016-05-15T03:50:36.274Z,15
2016-05-15T03:51:08.602Z,15
2016-05-15T03:52:24.870Z,15
2016-05-15T03:53:08.765Z,15
2016-05-15T03:54:22.126Z,15
2016-05-15T03:56:11.226Z,15
2016-05-15T03:57:22.353Z,20
2016-05-15T03:58:22.965Z,20
2016-05-15T03:59:08.108Z,25
2016-05-15T04:01:22.254Z,30
2016-05-15T04:02:08.381Z,30
2016-05-15T04:03:08.666Z,35
2016-05-15T04:04:08.372Z,40
2016-05-15T04:05:08.265Z,40
2016-05-15T04:06:08.267Z,40
2016-05-15T04:07:08.520Z,40
2016-05-15T04:08:08.555Z,40
2016-05-15T04:09:08.322Z,40
2016-05-15T04:10:22.497Z,45
2016-05-15T04:11:08.594Z,45
2016-05-15T04:12:08.628Z,45
2016-05-15T04:13:22.818Z,45
2016-05-15T04:14:37.027Z,45
2016-05-15T04:15:08.511Z,45
2016-05-15T04:18:08.582Z,50
2016-05-15T04:19:09.724Z,60
2016-05-15T04:20:37.355Z,70
2016-05-15T04:21:22.840Z,70
2016-05-15T04:22:08.749Z,60
2016-05-15T04:23:08.767Z,55
2016-05-15T04:26:08.946Z,65
2016-05-15T04:27:23.028Z,70
2016-05-15T04:28:08.889Z,80
2016-05-15T04:29:08.829Z,110
2016-05-15T04:30:23.286Z,65
2016-05-15T04:31:23.569Z,55
2016-05-15T04:32:09.259Z,50
2016-05-15T04:33:23.215Z,50
2016-05-15T04:34:09.390Z,45
2016-05-15T04:35:09.299Z,35
2016-05-15T04:36:23.473Z,35
2016-05-15T04:38:09.228Z,40
2016-05-15T04:40:09.250Z,55
2016-05-15T04:41:09.205Z,65
2016-05-15T04:42:23.505Z,70
2016-05-15T04:43:09.321Z,70
2016-05-15T04:44:09.385Z,60
2016-05-15T04:45:09.388Z,60
2016-05-15T04:46:09.624Z,70
2016-05-15T04:47:09.441Z,65
2016-05-15T04:48:23.646Z,60
2016-05-15T04:50:09.761Z,55
2016-05-15T04:51:23.998Z,55
2016-05-15T04:52:38.176Z,55
2016-05-15T04:53:09.629Z,60
2016-05-15T04:54:09.725Z,60
2016-05-15T04:56:38.640Z,65
2016-05-15T04:57:24.171Z,65
2016-05-15T04:58:09.642Z,70
2016-05-15T05:00:24.194Z,85
2016-05-15T05:01:10.087Z,80
2016-05-15T05:03:23.999Z,50
2016-05-15T05:04:10.753Z,45
2016-05-15T05:05:10.723Z,50
2016-05-15T05:06:10.522Z,50
2016-05-15T05:07:24.948Z,55
2016-05-15T05:08:10.106Z,60
2016-05-15T05:09:10.546Z,65
2016-05-15T05:10:24.550Z,75
2016-05-15T05:11:10.396Z,75
2016-05-15T05:13:25.072Z,75
2016-05-15T05:14:10.138Z,75
2016-05-15T05:15:10.141Z,65
2016-05-15T05:17:10.349Z,70
2016-05-15T05:18:10.618Z,65
2016-05-15T05:19:25.308Z,70
2016-05-15T05:20:10.326Z,70
2016-05-15T05:21:10.532Z,75
2016-05-15T05:22:10.347Z,80
2016-05-15T05:23:10.381Z,80
2016-05-15T05:24:10.571Z,75
2016-05-15T05:25:10.854Z,80
2016-05-15T05:26:10.468Z,80
2016-05-15T05:27:10.860Z,85
2016-05-15T05:28:10.362Z,85
2016-05-15T05:29:10.773Z,85
2016-05-15T05:30:10.587Z,90
2016-05-15T05:31:10.792Z,95
2016-05-15T05:32:10.670Z,105
2016-05-15T05:33:10.706Z,110
2016-05-15T05:34:11.208Z,115
2016-05-15T05:35:10.897Z,115
2016-05-15T05:36:10.948Z,125
2016-05-15T05:37:10.669Z,120
2016-05-15T05:38:10.999Z,120
2016-05-15T05:39:10.877Z,120
2016-05-15T05:40:11.052Z,115
2016-05-15T05:41:25.242Z,115
2016-05-15T05:42:25.275Z,120
2016-05-15T05:43:11.153Z,120
2016-05-15T05:44:11.188Z,125
2016-05-15T05:45:11.237Z,125
2016-05-15T05:46:11.255Z,125
2016-05-15T05:47:11.274Z,120
2016-05-15T05:48:11.308Z,130
2016-05-15T05:49:11.201Z,150
2016-05-15T05:50:11.219Z,175
2016-05-15T05:51:11.410Z,195
2016-05-15T05:52:11.427Z,220
2016-05-15T05:53:11.305Z,260
2016-05-15T05:54:11.340Z,270
2016-05-15T05:55:11.529Z,285
2016-05-15T05:56:11.548Z,270
2016-05-15T05:57:11.598Z,265
2016-05-15T05:58:11.475Z,215
2016-05-15T05:59:11.665Z,195
2016-05-15T06:00:11.667Z,195
2016-05-15T06:01:11.921Z,190
2016-05-15T06:02:11.579Z,200
2016-05-15T06:03:11.801Z,210
2016-05-15T06:04:12.320Z,210
2016-05-15T06:05:11.853Z,210
2016-05-15T06:06:11.887Z,220
2016-05-15T06:07:11.765Z,225
2016-05-15T06:08:11.939Z,215
2016-05-15T06:09:11.833Z,225
2016-05-15T06:10:12.007Z,225
2016-05-15T06:11:11.870Z,220
2016-05-15T06:12:12.075Z,220
2016-05-15T06:13:12.094Z,240
2016-05-15T06:14:12.127Z,250
2016-05-15T06:15:12.021Z,270
2016-05-15T06:16:12.196Z,280
2016-05-15T06:17:12.088Z,260
2016-05-15T06:18:12.108Z,255
2016-05-15T06:19:12.532Z,225
2016-05-15T06:20:12.331Z,175
2016-05-15T06:21:12.350Z,190
2016-05-15T06:22:12.399Z,215
2016-05-15T06:23:12.432Z,195
2016-05-15T06:24:12.451Z,210
2016-05-15T06:25:12.470Z,205
2016-05-15T06:26:12.363Z,220
2016-05-15T06:27:12.396Z,215
2016-05-15T06:28:12.274Z,185
2016-05-15T06:29:12.652Z,155
2016-05-15T06:30:12.639Z,135
2016-05-15T06:31:12.673Z,145
2016-05-15T06:32:12.707Z,170
2016-05-15T06:33:12.601Z,200
2016-05-15T06:34:12.915Z,180
2016-05-15T06:35:12.684Z,170
2016-05-15T06:36:12.843Z,175
2016-05-15T06:37:12.408Z,170
2016-05-15T06:38:12.755Z,145
2016-05-15T06:39:12.944Z,150
2016-05-15T06:40:12.979Z,160
2016-05-15T06:41:12.997Z,165
2016-05-15T06:42:12.874Z,155
2016-05-15T06:43:13.081Z,180
2016-05-15T06:44:13.114Z,210
2016-05-15T06:45:13.149Z,250
2016-05-15T06:46:13.010Z,270
2016-05-15T06:47:13.201Z,275
2016-05-15T06:48:13.250Z,235
2016-05-15T06:49:13.830Z,245
2016-05-15T06:50:13.303Z,265
2016-05-15T06:51:13.321Z,230
2016-05-15T06:52:13.417Z,240
2016-05-15T06:53:13.404Z,215
2016-05-15T06:54:13.438Z,240
2016-05-15T06:55:13.488Z,255
2016-05-15T06:56:13.506Z,210
2016-05-15T06:57:13.212Z,215
2016-05-15T06:58:13.559Z,250
2016-05-15T06:59:13.592Z,255
2016-05-15T07:00:13.470Z,300
2016-05-15T07:01:13.676Z,335
2016-05-15T07:02:13.523Z,375
2016-05-15T07:03:13.728Z,330
2016-05-15T07:04:14.075Z,365
2016-05-15T07:05:13.796Z,400
2016-05-15T07:06:13.673Z,465
2016-05-15T07:07:13.707Z,480
2016-05-15T07:08:13.742Z,385
2016-05-15T07:09:13.931Z,370
2016-05-15T07:10:13.809Z,330
2016-05-15T07:11:13.999Z,300
2016-05-15T07:12:14.018Z,275
2016-05-15T07:13:14.052Z,290
2016-05-15T07:14:14.101Z,395
2016-05-15T07:15:13.964Z,420
2016-05-15T07:16:14.013Z,410
2016-05-15T07:17:14.203Z,405
2016-05-15T07:18:14.081Z,400
2016-05-15T07:19:14.286Z,340
2016-05-15T07:20:14.133Z,275
2016-05-15T07:21:14.323Z,270
2016-05-15T07:22:14.357Z,280
2016-05-15T07:23:14.235Z,330
2016-05-15T07:24:14.425Z,325
2016-05-15T07:25:14.318Z,295
2016-05-15T07:26:14.352Z,295
2016-05-15T07:27:14.371Z,270
2016-05-15T07:28:14.420Z,290
2016-05-15T07:29:14.438Z,280
2016-05-15T07:30:14.629Z,310
2016-05-15T07:31:14.351Z,360
2016-05-15T07:32:14.900Z,360
2016-05-15T07:33:14.574Z,340
2016-05-15T07:34:14.796Z,370
2016-05-15T07:35:14.798Z,445
2016-05-15T07:36:14.831Z,505
2016-05-15T07:37:14.867Z,480
2016-05-15T07:38:14.916Z,480
2016-05-15T07:39:14.970Z,485
2016-05-15T07:40:15.016Z,435
2016-05-15T07:41:15.110Z,360
2016-05-15T07:42:15.202Z,425
2016-05-15T07:43:15.279Z,400
2016-05-15T07:44:15.328Z,340
2016-05-15T07:45:15.378Z,300
2016-05-15T07:46:15.428Z,535
2016-05-15T07:47:15.696Z,685
2016-05-15T07:48:15.542Z,510
2016-05-15T07:49:16.290Z,480
2016-05-15T07:50:15.611Z,320
2016-05-15T07:51:15.494Z,450
2016-05-15T07:52:15.689Z,1445
2016-05-15T07:53:21.089Z,1685
2016-05-15T07:54:15.798Z,1165
2016-05-15T07:55:16.396Z,1225
2016-05-15T07:56:15.870Z,1255
2016-05-15T07:57:15.858Z,555
2016-05-15T07:58:15.910Z,480
2016-05-15T07:59:15.945Z,585
2016-05-15T08:00:15.824Z,620
2016-05-15T08:01:16.015Z,740
2016-05-15T08:02:16.065Z,550
2016-05-15T08:03:16.084Z,440
2016-05-15T08:04:16.618Z,470
2016-05-15T08:05:15.996Z,410
2016-05-15T08:06:16.218Z,405
2016-05-15T08:07:16.082Z,385
2016-05-15T08:08:16.116Z,395
2016-05-15T08:09:16.165Z,360
2016-05-15T08:10:16.200Z,370
2016-05-15T08:11:16.093Z,435
2016-05-15T08:12:16.251Z,470
2016-05-15T08:13:16.301Z,470
2016-05-15T08:14:16.491Z,605
2016-05-15T08:15:16.525Z,565
2016-05-15T08:16:16.402Z,825
2016-05-15T08:17:16.609Z,630
2016-05-15T08:18:16.643Z,970
2016-05-15T08:19:16.754Z,1900
2016-05-15T08:20:16.710Z,435
2016-05-15T08:21:16.573Z,500
2016-05-15T08:22:16.623Z,495
2016-05-15T08:23:16.843Z,290
2016-05-15T08:24:16.940Z,1605
2016-05-15T08:25:16.881Z,1565
2016-05-15T08:26:16.914Z,1570
2016-05-15T08:27:16.792Z,1620
2016-05-15T08:28:17.013Z,985
2016-05-15T08:29:16.907Z,570
2016-05-15T08:30:17.081Z,1725
2016-05-15T08:31:17.130Z,970
2016-05-15T08:32:16.977Z,1965
2016-05-15T08:33:17.027Z,435
2016-05-15T08:34:17.170Z,1900
2016-05-15T08:35:17.532Z,1995
2016-05-15T08:36:17.286Z,1910
2016-05-15T08:37:17.334Z,1715
2016-05-15T08:38:17.211Z,845
2016-05-15T08:39:17.231Z,630
2016-05-15T08:40:17.296Z,820
2016-05-15T08:41:17.329Z,545
2016-05-15T08:42:17.519Z,510
2016-05-15T08:43:17.304Z,565
2016-05-15T08:44:17.603Z,585
2016-05-15T08:45:17.184Z,625
2016-05-15T08:46:17.530Z,375
2016-05-15T08:47:17.565Z,275
2016-05-15T08:48:17.613Z,215
2016-05-15T08:49:18.195Z,165
2016-05-15T08:50:17.838Z,160
2016-05-15T08:51:17.888Z,175
2016-05-15T08:52:17.765Z,195
2016-05-15T08:53:17.956Z,295
2016-05-15T08:54:17.989Z,1035
2016-05-15T08:55:17.851Z,1655
2016-05-15T08:56:17.604Z,1685
2016-05-15T08:57:18.107Z,320
2016-05-15T08:58:18.140Z,1285
2016-05-15T08:59:18.222Z,1880
2016-05-15T09:00:17.912Z,1850
2016-05-15T09:01:18.086Z,1720
2016-05-15T09:02:18.292Z,1575
2016-05-15T09:03:18.186Z,1420
2016-05-15T09:04:18.063Z,1370
2016-05-15T09:05:18.582Z,730
2016-05-15T09:06:18.444Z,1700
2016-05-15T09:07:18.477Z,385
2016-05-15T09:08:18.542Z,765
2016-05-15T09:09:18.091Z,275
2016-05-15T09:10:18.454Z,235
2016-05-15T09:11:18.645Z,2080
2016-05-15T09:12:18.522Z,1170
2016-05-15T09:13:18.571Z,2080
2016-05-15T09:14:18.763Z,1945
2016-05-15T09:15:18.796Z,1835
2016-05-15T09:16:18.829Z,335
2016-05-15T09:17:18.879Z,1595
2016-05-15T09:18:18.914Z,1765
2016-05-15T09:19:18.838Z,1170
2016-05-15T09:20:19.028Z,655
2016-05-15T09:21:18.890Z,710
2016-05-15T09:22:18.923Z,375
2016-05-15T09:23:19.115Z,350
2016-05-15T09:24:19.164Z,335
2016-05-15T09:25:19.198Z,290
2016-05-15T09:26:19.232Z,235
2016-05-15T09:27:19.281Z,225
2016-05-15T09:28:19.315Z,230
2016-05-15T09:29:19.349Z,240
2016-05-15T09:30:19.383Z,295
2016-05-15T09:31:19.448Z,370
2016-05-15T09:32:19.326Z,320
2016-05-15T09:33:19.516Z,360
2016-05-15T09:34:19.675Z,375
2016-05-15T09:35:20.084Z,330
2016-05-15T09:36:19.649Z,220
2016-05-15T09:37:19.511Z,275
2016-05-15T09:38:19.686Z,400
2016-05-15T09:39:19.580Z,600
2016-05-15T09:40:19.613Z,1335
2016-05-15T09:41:19.819Z,370
2016-05-15T09:42:19.697Z,240
2016-05-15T09:43:19.886Z,200
2016-05-15T09:44:19.624Z,190
2016-05-15T09:45:19.641Z,195
2016-05-15T09:46:19.989Z,165
2016-05-15T09:47:19.882Z,115
2016-05-15T09:48:19.900Z,95
2016-05-15T09:49:19.949Z,105
2016-05-15T09:50:20.749Z,125
2016-05-15T09:51:20.018Z,110
2016-05-15T09:52:20.208Z,100
2016-05-15T09:53:20.085Z,100
2016-05-15T09:54:20.151Z,105
2016-05-15T09:55:20.309Z,120
2016-05-15T09:56:20.203Z,130
2016-05-15T09:57:20.378Z,135
2016-05-15T09:58:20.411Z,140
2016-05-15T09:59:20.462Z,130
2016-05-15T10:00:20.339Z,125
2016-05-15T10:01:20.389Z,125
2016-05-15T10:02:20.250Z,150
2016-05-15T10:03:20.597Z,190
2016-05-15T10:04:20.959Z,250
2016-05-15T10:05:20.867Z,335
2016-05-15T10:06:20.698Z,395
2016-05-15T10:07:20.608Z,415
2016-05-15T10:08:20.783Z,385
2016-05-15T10:09:20.628Z,400
2016-05-15T10:10:20.818Z,455
2016-05-15T10:11:20.711Z,505
2016-05-15T10:12:20.747Z,575
2016-05-15T10:13:20.780Z,645
2016-05-15T10:14:20.673Z,710
2016-05-15T10:15:21.005Z,740
2016-05-15T10:16:20.882Z,1880
2016-05-15T10:17:20.900Z,2005
2016-05-15T10:18:20.949Z,1320
2016-05-15T10:19:21.594Z,1475
2016-05-15T10:20:21.018Z,2160
2016-05-15T10:21:21.052Z,1470
2016-05-15T10:22:21.241Z,2040
2016-05-15T10:23:21.275Z,2095
2016-05-15T10:24:21.310Z,2160
2016-05-15T10:25:21.343Z,2220
2016-05-15T10:26:21.377Z,1155
2016-05-15T10:27:21.254Z,1965
2016-05-15T10:28:21.601Z,1605
2016-05-15T10:29:21.495Z,1785
2016-05-15T10:30:21.529Z,2020
2016-05-15T10:31:21.953Z,1565
2016-05-15T10:32:21.628Z,1920
2016-05-15T10:33:21.646Z,2120
2016-05-15T10:34:22.415Z,2105
2016-05-15T10:35:21.792Z,2115
2016-05-15T10:36:21.622Z,2075
2016-05-15T10:37:21.798Z,2025
2016-05-15T10:38:21.848Z,1985
2016-05-15T10:39:21.897Z,1945
2016-05-15T10:40:21.914Z,1935
2016-05-15T10:41:21.840Z,680
2016-05-15T10:42:22.030Z,1890
2016-05-15T10:43:21.892Z,1785
2016-05-15T10:44:22.097Z,1705
2016-05-15T10:45:22.147Z,1720
2016-05-15T10:46:22.197Z,1740
2016-05-15T10:47:21.747Z,2005
2016-05-15T10:48:22.108Z,1115
2016-05-15T10:49:22.533Z,1650
2016-05-15T10:50:22.441Z,1900
2016-05-15T10:51:22.414Z,820
2016-05-15T10:52:22.135Z,1590
2016-05-15T10:53:22.496Z,560
2016-05-15T10:54:22.374Z,205
2016-05-15T10:55:22.408Z,155
2016-05-15T10:56:22.630Z,105
2016-05-15T10:57:22.523Z,50
2016-05-15T10:58:22.698Z,55
2016-05-15T10:59:22.762Z,65
2016-05-15T11:00:22.798Z,80
2016-05-15T11:01:22.659Z,100
2016-05-15T11:02:22.849Z,130
2016-05-15T11:03:22.898Z,150
2016-05-15T11:04:23.199Z,170
2016-05-15T11:05:22.997Z,205
2016-05-15T11:06:23.017Z,235
2016-05-15T11:07:22.753Z,295
2016-05-15T11:08:23.100Z,365
2016-05-15T11:09:22.977Z,420
2016-05-15T11:10:23.168Z,505
2016-05-15T11:11:23.202Z,465
2016-05-15T11:12:23.095Z,505
2016-05-15T11:13:23.285Z,1115
2016-05-15T11:14:23.335Z,1760
2016-05-15T11:15:23.352Z,1915
2016-05-15T11:16:23.684Z,1725
2016-05-15T11:17:23.436Z,1755
2016-05-15T11:18:23.314Z,1895
2016-05-15T11:19:24.676Z,1940
2016-05-15T11:20:23.397Z,1735
2016-05-15T11:21:23.588Z,1890
2016-05-15T11:22:23.309Z,2040
2016-05-15T11:23:23.515Z,305
2016-05-15T11:24:23.565Z,250
2016-05-15T11:25:23.614Z,230
2016-05-15T11:26:23.788Z,330
2016-05-15T11:27:23.823Z,470
2016-05-15T11:28:23.590Z,1865
2016-05-15T11:29:23.750Z,500
2016-05-15T11:30:23.799Z,290
2016-05-15T11:31:23.865Z,255
2016-05-15T11:32:24.039Z,235
2016-05-15T11:33:24.073Z,235
2016-05-15T11:34:25.389Z,220
2016-05-15T11:35:24.063Z,225
2016-05-15T11:36:24.175Z,695
2016-05-15T11:37:24.459Z,2175
2016-05-15T11:38:24.117Z,1520
2016-05-15T11:39:24.308Z,1755
2016-05-15T11:40:24.326Z,575
2016-05-15T11:41:24.376Z,275
2016-05-15T11:42:24.519Z,225
2016-05-15T11:43:24.631Z,200
2016-05-15T11:44:24.336Z,235
2016-05-15T11:45:24.528Z,240
2016-05-15T11:46:24.561Z,275
2016-05-15T11:47:24.611Z,1040
2016-05-15T11:48:24.691Z,715
2016-05-15T11:49:24.850Z,1105
2016-05-15T11:50:24.602Z,425
2016-05-15T11:51:24.606Z,310
2016-05-15T11:52:24.812Z,250
2016-05-15T11:53:24.846Z,255
2016-05-15T11:54:24.973Z,255
2016-05-15T11:55:24.757Z,245
2016-05-15T11:56:24.947Z,240
2016-05-15T11:57:24.826Z,210
2016-05-15T11:58:24.860Z,200
2016-05-15T11:59:25.065Z,205
2016-05-15T12:00:25.083Z,235
2016-05-15T12:01:24.992Z,270
2016-05-15T12:02:25.167Z,300
2016-05-15T12:03:25.060Z,340
2016-05-15T12:04:26.001Z,375
2016-05-15T12:05:25.159Z,425
2016-05-15T12:06:25.334Z,520
2016-05-15T12:07:25.195Z,520
2016-05-15T12:08:25.386Z,580
2016-05-15T12:09:25.264Z,965
2016-05-15T12:10:25.298Z,550
2016-05-15T12:11:25.488Z,505
2016-05-15T12:12:25.366Z,485
2016-05-15T12:13:25.556Z,480
2016-05-15T12:14:25.293Z,440
2016-05-15T12:15:25.639Z,405
2016-05-15T12:16:25.533Z,385
2016-05-15T12:17:25.707Z,400
2016-05-15T12:18:25.741Z,380
2016-05-15T12:19:25.868Z,380
2016-05-15T12:20:25.949Z,415
2016-05-15T12:21:25.844Z,430
2016-05-15T12:22:25.736Z,385
2016-05-15T12:23:25.927Z,370
2016-05-15T12:24:25.976Z,360
2016-05-15T12:25:25.838Z,330
2016-05-15T12:26:25.871Z,300
2016-05-15T12:27:26.063Z,290
2016-05-15T12:28:26.096Z,290
2016-05-15T12:29:26.146Z,300
2016-05-15T12:30:25.851Z,305
2016-05-15T12:31:26.042Z,330
2016-05-15T12:32:25.935Z,325
2016-05-15T12:33:26.126Z,310
2016-05-15T12:34:26.753Z,300
2016-05-15T12:35:26.599Z,320
2016-05-15T12:36:26.383Z,370
2016-05-15T12:37:26.261Z,400
2016-05-15T12:38:26.467Z,410
2016-05-15T12:39:26.173Z,395
2016-05-15T12:40:26.520Z,355
2016-05-15T12:41:26.584Z,330
2016-05-15T12:42:26.603Z,325
2016-05-15T12:43:26.620Z,330
2016-05-15T12:44:26.655Z,345
2016-05-15T12:45:26.688Z,360
2016-05-15T12:46:26.723Z,395
2016-05-15T12:47:26.616Z,430
2016-05-15T12:48:26.791Z,700
2016-05-15T12:49:27.231Z,495
2016-05-15T12:50:26.749Z,495
2016-05-15T12:51:26.752Z,525
2016-05-15T12:52:26.941Z,585
2016-05-15T12:53:26.976Z,390
2016-05-15T12:54:27.010Z,435
2016-05-15T12:55:26.888Z,465
2016-05-15T12:56:27.077Z,875
2016-05-15T12:57:26.971Z,1530
2016-05-15T12:58:27.005Z,1480
2016-05-15T12:59:27.024Z,2165
2016-05-15T13:00:27.245Z,1960
2016-05-15T13:01:27.123Z,1430
2016-05-15T13:02:27.156Z,1855
2016-05-15T13:03:27.362Z,1955
2016-05-15T13:04:27.083Z,1295
2016-05-15T13:05:26.977Z,1195
2016-05-15T13:06:27.323Z,1140
2016-05-15T13:07:27.498Z,585
2016-05-15T13:08:27.391Z,495
2016-05-15T13:09:27.425Z,505
2016-05-15T13:10:27.614Z,280
2016-05-15T13:11:27.633Z,185
2016-05-15T13:12:27.684Z,140
2016-05-15T13:13:27.576Z,105
2016-05-15T13:14:27.454Z,100
2016-05-15T13:15:27.800Z,95
2016-05-15T13:16:27.834Z,85
2016-05-15T13:17:27.869Z,85
2016-05-15T13:18:27.919Z,70
2016-05-15T13:19:28.358Z,70
2016-05-15T13:20:28.392Z,70
2016-05-15T13:21:28.019Z,65
2016-05-15T13:22:27.913Z,65
2016-05-15T13:23:28.135Z,70
2016-05-15T13:24:28.371Z,75
2016-05-15T13:25:28.172Z,100
2016-05-15T13:26:28.361Z,120
2016-05-15T13:27:28.082Z,135
2016-05-15T13:28:28.273Z,145
2016-05-15T13:29:28.307Z,155
2016-05-15T13:30:28.200Z,160
2016-05-15T13:31:28.391Z,170
2016-05-15T13:32:28.268Z,175
2016-05-15T13:33:28.443Z,175
2016-05-15T13:34:28.789Z,175
2016-05-15T13:35:28.526Z,180
2016-05-15T13:36:28.404Z,185
2016-05-15T13:37:28.594Z,195
2016-05-15T13:38:28.628Z,200
2016-05-15T13:39:28.506Z,215
2016-05-15T13:40:28.540Z,230
2016-05-15T13:41:28.730Z,245
2016-05-15T13:42:28.608Z,285
2016-05-15T13:43:28.797Z,320
2016-05-15T13:44:28.832Z,445
2016-05-15T13:45:28.866Z,480
2016-05-15T13:46:28.587Z,525
2016-05-15T13:47:28.934Z,430
2016-05-15T13:48:28.967Z,1975
2016-05-15T13:49:28.923Z,530
2016-05-15T13:50:29.738Z,345
2016-05-15T13:51:28.741Z,365
2016-05-15T13:52:29.119Z,1300
2016-05-15T13:53:29.152Z,1840
2016-05-15T13:54:28.874Z,1705
2016-05-15T13:55:29.049Z,1530
2016-05-15T13:56:29.238Z,1405
2016-05-15T13:57:29.288Z,965
2016-05-15T13:58:29.416Z,330
2016-05-15T13:59:35.904Z,885
2016-05-15T14:00:29.235Z,870
2016-05-15T14:01:29.143Z,380
2016-05-15T14:02:29.318Z,205
2016-05-15T14:03:29.523Z,195
2016-05-15T14:04:29.792Z,205
2016-05-15T14:05:29.465Z,230
2016-05-15T14:06:29.641Z,255
2016-05-15T14:07:29.660Z,280
2016-05-15T14:08:29.709Z,305
2016-05-15T14:09:29.587Z,295
2016-05-15T14:10:29.792Z,290
2016-05-15T14:11:29.811Z,385
2016-05-15T14:12:29.860Z,390
2016-05-15T14:13:29.894Z,395
2016-05-15T14:14:29.959Z,350
2016-05-15T14:15:29.837Z,325
2016-05-15T14:16:29.856Z,285
2016-05-15T14:17:30.045Z,235
2016-05-15T14:18:30.080Z,210
2016-05-15T14:19:29.972Z,210
2016-05-15T14:20:30.225Z,210
2016-05-15T14:21:30.180Z,220
2016-05-15T14:22:30.230Z,230
2016-05-15T14:23:30.265Z,225
2016-05-15T14:24:30.314Z,230
2016-05-15T14:25:30.177Z,270
2016-05-15T14:26:30.366Z,295
2016-05-15T14:27:30.416Z,260
2016-05-15T14:28:30.449Z,285
2016-05-15T14:29:30.484Z,300
2016-05-15T14:30:30.221Z,260
2016-05-15T14:31:30.567Z,215